sensor_id;sensor_type;location;lat;lon;timestamp;temperature;humidity
31455;DHT22;18084;53.028;8.834;2022-08-03T08:30:50;31.30;99.90
31455;DHT22;18084;53.028;8.834;2022-08-03T08:33:15;30.40;99.90
31455;DHT22;18084;53.028;8.834;2022-08-03T08:35:41;33.40;99.90
31455;DHT22;18084;53.028;8.834;2022-08-03T08:38:06;32.30;99.90
31455;DHT22;18084;53.028;8.834;2022-08-03T08:40:32;32.50;99.90
31455;DHT22;18084;53.028;8.834;2022-08-03T08:42:58;33.00;99.90
31455;DHT22;18084;53.028;8.834;2022-08-03T08:45:24;33.60;99.90
31455;DHT22;18084;53.028;8.834;2022-08-03T08:47:49;31.40;99.90
31455;DHT22;18084;53.028;8.834;2022-08-03T08:50:18;31.50;99.90
31455;DHT22;18084;53.028;8.834;2022-08-03T08:52:49;32.40;99.90
31455;DHT22;18084;53.028;8.834;2022-08-03T08:55:20;34.50;99.90
31455;DHT22;18084;53.028;8.834;2022-08-03T08:57:52;33.00;99.90
31455;DHT22;18084;53.028;8.834;2022-08-03T09:00:23;33.70;99.90
31455;DHT22;18084;53.028;8.834;2022-08-03T09:02:49;33.00;99.90
31455;DHT22;18084;53.028;8.834;2022-08-03T09:05:18;33.20;99.90
31455;DHT22;18084;53.028;8.834;2022-08-03T09:07:45;30.40;99.90
31455;DHT22;18084;53.028;8.834;2022-08-03T09:10:12;32.00;99.90
31455;DHT22;18084;53.028;8.834;2022-08-03T09:12:45;34.00;99.90
31455;DHT22;18084;53.028;8.834;2022-08-03T09:15:34;32.70;99.90
31455;DHT22;18084;53.028;8.834;2022-08-03T09:18:02;33.60;99.90
31455;DHT22;18084;53.028;8.834;2022-08-03T09:20:30;31.60;99.90
31455;DHT22;18084;53.028;8.834;2022-08-03T09:22:57;30.00;99.90
31455;DHT22;18084;53.028;8.834;2022-08-03T09:25:40;33.30;99.90
31455;DHT22;18084;53.028;8.834;2022-08-03T09:28:17;31.10;99.90
31455;DHT22;18084;53.028;8.834;2022-08-03T09:30:57;33.50;99.90
31455;DHT22;18084;53.028;8.834;2022-08-03T09:33:23;33.10;99.90
31455;DHT22;18084;53.028;8.834;2022-08-03T09:35:49;31.20;99.90
31455;DHT22;18084;53.028;8.834;2022-08-03T09:38:19;31.30;99.90
31455;DHT22;18084;53.028;8.834;2022-08-03T09:40:56;31.00;99.90
31455;DHT22;18084;53.028;8.834;2022-08-03T09:43:45;31.10;99.90
31455;DHT22;18084;53.028;8.834;2022-08-03T09:46:11;31.10;99.90
31455;DHT22;18084;53.028;8.834;2022-08-03T09:48:37;33.00;99.90
31455;DHT22;18084;53.028;8.834;2022-08-03T09:51:03;33.20;99.90
31455;DHT22;18084;53.028;8.834;2022-08-03T09:53:29;34.30;99.90
31455;DHT22;18084;53.028;8.834;2022-08-03T09:55:59;34.30;99.90
31455;DHT22;18084;53.028;8.834;2022-08-03T09:58:29;32.30;99.90
31455;DHT22;18084;53.028;8.834;2022-08-03T10:01:00;33.20;99.90
31455;DHT22;18084;53.028;8.834;2022-08-03T10:03:28;31.50;99.90
31455;DHT22;18084;53.028;8.834;2022-08-03T10:05:54;33.20;99.90
31455;DHT22;18084;53.028;8.834;2022-08-03T10:08:20;31.20;99.90
31455;DHT22;18084;53.028;8.834;2022-08-03T10:10:48;31.90;99.90
31455;DHT22;18084;53.028;8.834;2022-08-03T11:19:14;31.70;99.90
31455;DHT22;18084;53.028;8.834;2022-08-03T11:30:48;31.50;99.90
31455;DHT22;18084;53.028;8.834;2022-08-03T11:33:28;31.80;99.90
31455;DHT22;18084;53.028;8.834;2022-08-03T11:39:12;31.80;99.90
31455;DHT22;18084;53.028;8.834;2022-08-03T11:41:41;32.00;99.90
31455;DHT22;18084;53.028;8.834;2022-08-03T11:44:39;32.10;99.90
31455;DHT22;18084;53.028;8.834;2022-08-03T11:47:11;32.20;99.90
31455;DHT22;18084;53.028;8.834;2022-08-03T11:50:05;32.30;99.90
31455;DHT22;18084;53.028;8.834;2022-08-03T11:53:03;32.30;99.90
31455;DHT22;18084;53.028;8.834;2022-08-03T11:55:47;32.20;99.90
31455;DHT22;18084;53.028;8.834;2022-08-03T11:58:21;32.80;99.90
31455;DHT22;18084;53.028;8.834;2022-08-03T12:01:05;32.70;99.90
31455;DHT22;18084;53.028;8.834;2022-08-03T12:03:44;32.50;99.90
31455;DHT22;18084;53.028;8.834;2022-08-03T12:10:18;32.60;99.90
31455;DHT22;18084;53.028;8.834;2022-08-03T12:13:11;32.70;99.90
31455;DHT22;18084;53.028;8.834;2022-08-03T12:16:01;32.70;99.90
31455;DHT22;18084;53.028;8.834;2022-08-03T12:21:32;33.20;99.90
31455;DHT22;18084;53.028;8.834;2022-08-03T12:24:38;32.90;99.90
31455;DHT22;18084;53.028;8.834;2022-08-03T12:27:26;32.90;99.90
31455;DHT22;18084;53.028;8.834;2022-08-03T12:30:10;32.90;99.90
31455;DHT22;18084;53.028;8.834;2022-08-03T12:32:58;32.80;99.90
31455;DHT22;18084;53.028;8.834;2022-08-03T12:35:39;33.20;99.90
31455;DHT22;18084;53.028;8.834;2022-08-03T12:38:20;32.80;99.90
31455;DHT22;18084;53.028;8.834;2022-08-03T12:44:42;33.30;99.90
31455;DHT22;18084;53.028;8.834;2022-08-03T12:47:31;33.00;99.90
31455;DHT22;18084;53.028;8.834;2022-08-03T12:50:27;32.80;99.90
31455;DHT22;18084;53.028;8.834;2022-08-03T12:56:55;33.10;99.90
31455;DHT22;18084;53.028;8.834;2022-08-03T12:59:50;32.90;99.90
31455;DHT22;18084;53.028;8.834;2022-08-03T13:02:53;33.10;99.90
31455;DHT22;18084;53.028;8.834;2022-08-03T13:05:54;33.30;99.90
31455;DHT22;18084;53.028;8.834;2022-08-03T13:15:13;32.90;99.90
31455;DHT22;18084;53.028;8.834;2022-08-03T13:18:25;32.80;99.90
31455;DHT22;18084;53.028;8.834;2022-08-03T13:25:02;32.80;99.90
31455;DHT22;18084;53.028;8.834;2022-08-03T13:31:00;32.90;99.90
31455;DHT22;18084;53.028;8.834;2022-08-03T13:33:53;33.30;99.90
31455;DHT22;18084;53.028;8.834;2022-08-03T13:36:46;33.00;99.90
31455;DHT22;18084;53.028;8.834;2022-08-03T13:43:38;33.10;99.90
31455;DHT22;18084;53.028;8.834;2022-08-03T13:46:33;33.30;99.90
31455;DHT22;18084;53.028;8.834;2022-08-03T14:03:15;33.10;99.90
31455;DHT22;18084;53.028;8.834;2022-08-03T14:23:13;33.60;99.90
31455;DHT22;18084;53.028;8.834;2022-08-03T14:34:03;33.70;99.90
31455;DHT22;18084;53.028;8.834;2022-08-03T15:44:56;32.80;99.90
31455;DHT22;18084;53.028;8.834;2022-08-03T15:47:21;32.80;99.90
31455;DHT22;18084;53.028;8.834;2022-08-03T15:49:50;32.80;99.90
31455;DHT22;18084;53.028;8.834;2022-08-03T15:52:15;32.80;99.90
31455;DHT22;18084;53.028;8.834;2022-08-03T15:54:41;32.80;99.90
31455;DHT22;18084;53.028;8.834;2022-08-03T15:57:06;32.70;99.90
31455;DHT22;18084;53.028;8.834;2022-08-03T15:59:32;32.70;99.90
31455;DHT22;18084;53.028;8.834;2022-08-03T16:01:58;32.70;99.90
31455;DHT22;18084;53.028;8.834;2022-08-03T16:04:23;32.70;99.90
31455;DHT22;18084;53.028;8.834;2022-08-03T16:06:49;32.80;99.90
31455;DHT22;18084;53.028;8.834;2022-08-03T16:09:14;32.70;99.90
31455;DHT22;18084;53.028;8.834;2022-08-03T16:11:40;32.90;99.90
31455;DHT22;18084;53.028;8.834;2022-08-03T16:14:11;32.60;99.90
31455;DHT22;18084;53.028;8.834;2022-08-03T16:16:36;32.40;99.90
31455;DHT22;18084;53.028;8.834;2022-08-03T16:19:05;32.40;99.90
31455;DHT22;18084;53.028;8.834;2022-08-03T16:21:31;32.40;99.90
31455;DHT22;18084;53.028;8.834;2022-08-03T16:23:57;32.40;99.90
31455;DHT22;18084;53.028;8.834;2022-08-03T16:26:28;33.00;99.90
31455;DHT22;18084;53.028;8.834;2022-08-03T16:28:56;32.90;99.90
31455;DHT22;18084;53.028;8.834;2022-08-03T16:31:22;31.00;99.90
31455;DHT22;18084;53.028;8.834;2022-08-03T16:33:54;32.70;99.90
31455;DHT22;18084;53.028;8.834;2022-08-03T16:36:20;32.60;99.90
31455;DHT22;18084;53.028;8.834;2022-08-03T16:38:45;32.60;99.90
31455;DHT22;18084;53.028;8.834;2022-08-03T16:41:11;32.60;99.90
31455;DHT22;18084;53.028;8.834;2022-08-03T16:43:36;32.70;99.90
31455;DHT22;18084;53.028;8.834;2022-08-03T16:46:02;32.50;99.90
31455;DHT22;18084;53.028;8.834;2022-08-03T16:48:27;32.50;99.90
31455;DHT22;18084;53.028;8.834;2022-08-03T16:50:53;32.50;99.90
31455;DHT22;18084;53.028;8.834;2022-08-03T16:53:19;32.20;99.90
31455;DHT22;18084;53.028;8.834;2022-08-03T16:55:44;32.30;99.90
31455;DHT22;18084;53.028;8.834;2022-08-03T16:58:13;32.40;99.90
31455;DHT22;18084;53.028;8.834;2022-08-03T17:00:46;32.40;99.90
31455;DHT22;18084;53.028;8.834;2022-08-03T17:03:12;32.60;99.90
31455;DHT22;18084;53.028;8.834;2022-08-03T17:05:39;32.60;99.90
31455;DHT22;18084;53.028;8.834;2022-08-03T17:08:06;32.60;99.90
31455;DHT22;18084;53.028;8.834;2022-08-03T17:10:31;32.60;99.90
31455;DHT22;18084;53.028;8.834;2022-08-03T17:13:00;32.80;99.90
31455;DHT22;18084;53.028;8.834;2022-08-03T17:15:26;32.60;99.90
31455;DHT22;18084;53.028;8.834;2022-08-03T17:18:08;32.60;99.90
31455;DHT22;18084;53.028;8.834;2022-08-03T17:20:40;32.40;99.90
31455;DHT22;18084;53.028;8.834;2022-08-03T17:25:56;31.90;99.90
31455;DHT22;18084;53.028;8.834;2022-08-03T17:28:23;32.00;99.90
31455;DHT22;18084;53.028;8.834;2022-08-03T17:30:53;31.60;99.90
31455;DHT22;18084;53.028;8.834;2022-08-03T17:33:37;31.60;99.90
31455;DHT22;18084;53.028;8.834;2022-08-03T17:36:03;31.50;99.90
31455;DHT22;18084;53.028;8.834;2022-08-03T17:38:29;31.40;99.90
31455;DHT22;18084;53.028;8.834;2022-08-03T17:40:55;31.80;99.90
31455;DHT22;18084;53.028;8.834;2022-08-03T17:43:22;31.20;99.90
31455;DHT22;18084;53.028;8.834;2022-08-03T17:45:48;31.20;99.90
31455;DHT22;18084;53.028;8.834;2022-08-03T17:48:14;31.20;99.90
31455;DHT22;18084;53.028;8.834;2022-08-03T17:50:53;31.70;99.90
31455;DHT22;18084;53.028;8.834;2022-08-03T17:53:31;31.10;99.90
31455;DHT22;18084;53.028;8.834;2022-08-03T18:05:36;30.90;99.90
31455;DHT22;18084;53.028;8.834;2022-08-03T18:08:02;30.80;99.90
31455;DHT22;18084;53.028;8.834;2022-08-03T18:10:33;30.70;99.90
31455;DHT22;18084;53.028;8.834;2022-08-03T18:13:23;31.10;99.90
31455;DHT22;18084;53.028;8.834;2022-08-03T18:15:52;30.70;99.90
31455;DHT22;18084;53.028;8.834;2022-08-03T18:18:29;30.60;99.90
31455;DHT22;18084;53.028;8.834;2022-08-03T18:20:56;30.50;99.90
31455;DHT22;18084;53.028;8.834;2022-08-03T18:23:22;30.50;99.90
31455;DHT22;18084;53.028;8.834;2022-08-03T18:25:50;30.40;99.90
31455;DHT22;18084;53.028;8.834;2022-08-03T18:28:20;30.40;99.90
31455;DHT22;18084;53.028;8.834;2022-08-03T18:30:49;30.40;99.90
31455;DHT22;18084;53.028;8.834;2022-08-03T18:33:16;30.40;99.90
31455;DHT22;18084;53.028;8.834;2022-08-03T18:35:43;30.20;99.90
31455;DHT22;18084;53.028;8.834;2022-08-03T18:38:13;30.20;99.90
31455;DHT22;18084;53.028;8.834;2022-08-03T18:40:41;30.00;99.90
31455;DHT22;18084;53.028;8.834;2022-08-03T18:43:07;30.00;99.90
31455;DHT22;18084;53.028;8.834;2022-08-03T18:45:36;29.90;99.90
31455;DHT22;18084;53.028;8.834;2022-08-03T18:48:11;29.90;99.90
31455;DHT22;18084;53.028;8.834;2022-08-03T18:50:52;29.80;99.90
31455;DHT22;18084;53.028;8.834;2022-08-03T18:53:45;29.70;99.90
31455;DHT22;18084;53.028;8.834;2022-08-03T18:56:32;29.40;99.90
31455;DHT22;18084;53.028;8.834;2022-08-03T18:59:08;29.40;99.90
31455;DHT22;18084;53.028;8.834;2022-08-03T19:01:43;29.30;99.90
31455;DHT22;18084;53.028;8.834;2022-08-03T19:04:33;29.10;99.90
31455;DHT22;18084;53.028;8.834;2022-08-03T19:07:07;28.90;99.90
31455;DHT22;18084;53.028;8.834;2022-08-03T19:09:53;28.80;99.90
31455;DHT22;18084;53.028;8.834;2022-08-03T19:12:25;28.70;99.90
31455;DHT22;18084;53.028;8.834;2022-08-03T19:14:55;28.50;99.90
31455;DHT22;18084;53.028;8.834;2022-08-03T19:17:25;28.30;99.90
31455;DHT22;18084;53.028;8.834;2022-08-03T19:19:52;28.10;99.90
31455;DHT22;18084;53.028;8.834;2022-08-03T19:22:18;28.00;99.90
31455;DHT22;18084;53.028;8.834;2022-08-03T19:24:53;27.90;99.90
31455;DHT22;18084;53.028;8.834;2022-08-03T19:27:21;27.60;99.90
31455;DHT22;18084;53.028;8.834;2022-08-03T19:29:47;27.40;99.90
31455;DHT22;18084;53.028;8.834;2022-08-03T19:32:16;27.20;1.00
31455;DHT22;18084;53.028;8.834;2022-08-03T19:34:46;27.10;8.20
31455;DHT22;18084;53.028;8.834;2022-08-03T19:37:14;26.90;99.90
31455;DHT22;18084;53.028;8.834;2022-08-03T19:39:41;26.70;99.90
31455;DHT22;18084;53.028;8.834;2022-08-03T19:42:10;26.60;1.00
31455;DHT22;18084;53.028;8.834;2022-08-03T19:44:42;26.50;67.20
31455;DHT22;18084;53.028;8.834;2022-08-03T19:47:31;26.30;99.90
31455;DHT22;18084;53.028;8.834;2022-08-03T19:50:02;26.30;99.90
31455;DHT22;18084;53.028;8.834;2022-08-03T19:52:31;26.20;34.70
31455;DHT22;18084;53.028;8.834;2022-08-03T19:55:02;26.10;99.90
31455;DHT22;18084;53.028;8.834;2022-08-03T19:57:29;25.90;52.80
31455;DHT22;18084;53.028;8.834;2022-08-03T19:59:58;25.70;99.90
31455;DHT22;18084;53.028;8.834;2022-08-03T20:02:25;25.60;16.30
31455;DHT22;18084;53.028;8.834;2022-08-03T20:04:50;25.50;99.90
31455;DHT22;18084;53.028;8.834;2022-08-03T20:07:16;25.50;99.90
31455;DHT22;18084;53.028;8.834;2022-08-03T20:09:42;25.30;25.40
31455;DHT22;18084;53.028;8.834;2022-08-03T20:12:09;25.20;99.90
31455;DHT22;18084;53.028;8.834;2022-08-03T20:14:38;25.10;99.90
31455;DHT22;18084;53.028;8.834;2022-08-03T20:17:05;25.10;99.90
31455;DHT22;18084;53.028;8.834;2022-08-03T20:19:30;24.90;99.90
31455;DHT22;18084;53.028;8.834;2022-08-03T20:21:56;24.80;99.90
31455;DHT22;18084;53.028;8.834;2022-08-03T20:24:27;24.80;99.90
31455;DHT22;18084;53.028;8.834;2022-08-03T20:26:55;24.80;1.00
31455;DHT22;18084;53.028;8.834;2022-08-03T20:29:28;24.60;1.00
31455;DHT22;18084;53.028;8.834;2022-08-03T20:31:54;24.50;1.00
31455;DHT22;18084;53.028;8.834;2022-08-03T20:34:20;24.50;76.40
31455;DHT22;18084;53.028;8.834;2022-08-03T20:36:46;24.50;7.10
31455;DHT22;18084;53.028;8.834;2022-08-03T20:39:11;24.30;97.40
31455;DHT22;18084;53.028;8.834;2022-08-03T20:41:37;24.30;99.90
31455;DHT22;18084;53.028;8.834;2022-08-03T20:44:03;24.30;93.70
31455;DHT22;18084;53.028;8.834;2022-08-03T20:46:30;24.20;99.90
31455;DHT22;18084;53.028;8.834;2022-08-03T20:48:56;24.20;99.90
31455;DHT22;18084;53.028;8.834;2022-08-03T20:51:22;24.10;99.90
31455;DHT22;18084;53.028;8.834;2022-08-03T20:53:48;24.00;99.90
31455;DHT22;18084;53.028;8.834;2022-08-03T20:56:16;24.00;99.90
31455;DHT22;18084;53.028;8.834;2022-08-03T20:58:42;23.90;99.90
31455;DHT22;18084;53.028;8.834;2022-08-03T21:01:07;23.90;99.90
31455;DHT22;18084;53.028;8.834;2022-08-03T21:03:33;23.90;99.90
31455;DHT22;18084;53.028;8.834;2022-08-03T21:06:02;23.80;99.90
31455;DHT22;18084;53.028;8.834;2022-08-03T21:08:32;23.80;99.90
31455;DHT22;18084;53.028;8.834;2022-08-03T21:11:04;23.70;99.90
31455;DHT22;18084;53.028;8.834;2022-08-03T21:14:00;23.60;99.90
31455;DHT22;18084;53.028;8.834;2022-08-03T21:16:28;23.60;99.90
31455;DHT22;18084;53.028;8.834;2022-08-03T21:18:58;23.50;1.00
31455;DHT22;18084;53.028;8.834;2022-08-03T21:28:44;23.40;1.00
